createdAt,value
2023-06-09T00:01:29.160Z,1011.91
2023-06-09T00:03:14.231Z,1011.97
2023-06-09T00:04:59.150Z,1011.9
2023-06-09T00:06:44.187Z,1011.92
2023-06-09T00:08:29.152Z,1011.87
2023-06-09T00:10:14.161Z,1011.8
2023-06-09T00:11:59.179Z,1011.82
2023-06-09T00:13:44.172Z,1011.82
2023-06-09T00:15:29.164Z,1011.91
2023-06-09T00:17:14.213Z,1011.85
2023-06-09T00:18:59.193Z,1011.86
2023-06-09T00:20:44.187Z,1011.93
2023-06-09T00:22:29.162Z,1011.99
2023-06-09T00:24:14.257Z,1011.86
2023-06-09T00:25:59.167Z,1011.83
2023-06-09T00:27:44.184Z,1011.89
2023-06-09T00:29:29.208Z,1011.87
2023-06-09T00:31:14.203Z,1011.97
2023-06-09T00:32:59.220Z,1011.97
2023-06-09T00:34:44.215Z,1011.9
2023-06-09T00:36:29.188Z,1011.95
2023-06-09T00:38:14.175Z,1011.92
2023-06-09T00:39:59.218Z,1011.94
2023-06-09T00:41:44.196Z,1011.99
2023-06-09T00:43:29.210Z,1011.94
2023-06-09T00:45:14.234Z,1011.91
2023-06-09T00:46:59.242Z,1011.89
2023-06-09T00:48:44.211Z,1011.81
2023-06-09T00:50:29.255Z,1011.79
2023-06-09T00:52:14.224Z,1011.8
2023-06-09T00:53:59.209Z,1011.88
2023-06-09T00:55:44.228Z,1011.84
2023-06-09T00:57:29.217Z,1011.86
2023-06-09T00:59:14.223Z,1011.89
2023-06-09T01:00:59.263Z,1011.76
2023-06-09T01:02:44.317Z,1011.86
2023-06-09T01:04:29.241Z,1011.87
2023-06-09T01:06:14.265Z,1011.79
2023-06-09T01:07:59.216Z,1011.87
2023-06-09T01:09:44.244Z,1011.82
2023-06-09T01:11:29.259Z,1011.72
2023-06-09T01:13:14.267Z,1011.74
2023-06-09T01:14:59.252Z,1011.75
2023-06-09T01:16:44.289Z,1011.8
2023-06-09T01:18:29.262Z,1011.77
2023-06-09T01:20:14.272Z,1011.83
2023-06-09T01:21:59.310Z,1011.8
2023-06-09T01:23:44.285Z,1011.77
2023-06-09T01:25:29.264Z,1011.82
2023-06-09T01:27:14.267Z,1011.7
2023-06-09T01:28:59.276Z,1011.72
2023-06-09T01:30:44.294Z,1011.7
2023-06-09T01:32:29.338Z,1011.67
2023-06-09T01:34:14.275Z,1011.67
2023-06-09T01:35:59.286Z,1011.72
2023-06-09T01:37:44.353Z,1011.76
2023-06-09T01:39:29.289Z,1011.67
2023-06-09T01:41:14.275Z,1011.76
2023-06-09T01:42:59.284Z,1011.64
2023-06-09T01:44:44.321Z,1011.67
2023-06-09T01:46:29.375Z,1011.71
2023-06-09T01:48:14.298Z,1011.75
2023-06-09T01:49:59.287Z,1011.71
2023-06-09T01:51:44.305Z,1011.81
2023-06-09T01:53:29.328Z,1011.76
2023-06-09T01:55:14.312Z,1011.65
2023-06-09T01:56:59.321Z,1011.72
2023-06-09T01:58:44.318Z,1011.79
2023-06-09T02:00:29.658Z,1011.74
2023-06-09T02:02:14.353Z,1011.72
2023-06-09T02:03:59.342Z,1011.71
2023-06-09T02:05:44.340Z,1011.64
2023-06-09T02:07:29.331Z,1011.73
2023-06-09T02:09:14.345Z,1011.75
2023-06-09T02:10:59.629Z,1011.56
2023-06-09T02:12:44.331Z,1011.67
2023-06-09T02:14:29.345Z,1011.58
2023-06-09T02:16:14.350Z,1011.63
2023-06-09T02:17:59.365Z,1011.55
2023-06-09T02:19:44.345Z,1011.51
2023-06-09T02:21:29.366Z,1011.58
2023-06-09T02:23:14.361Z,1011.62
2023-06-09T02:24:59.379Z,1011.59
2023-06-09T02:26:44.356Z,1011.71
2023-06-09T02:28:29.350Z,1011.59
2023-06-09T02:30:14.355Z,1011.62
2023-06-09T02:31:59.442Z,1011.65
2023-06-09T02:33:44.360Z,1011.62
2023-06-09T02:35:29.387Z,1011.69
2023-06-09T02:37:14.388Z,1011.67
2023-06-09T02:38:59.357Z,1011.69
2023-06-09T02:40:44.443Z,1011.69
2023-06-09T02:42:29.392Z,1011.69
2023-06-09T02:44:14.393Z,1011.64
2023-06-09T02:45:59.493Z,1011.7
2023-06-09T02:47:44.462Z,1011.7
2023-06-09T02:49:29.380Z,1011.65
2023-06-09T02:51:14.401Z,1011.59
2023-06-09T02:52:59.394Z,1011.61
2023-06-09T02:54:44.383Z,1011.64
2023-06-09T02:56:29.403Z,1011.66
2023-06-09T02:58:14.384Z,1011.6
2023-06-09T02:59:59.366Z,1011.6
2023-06-09T03:01:44.494Z,1011.5
2023-06-09T03:03:29.463Z,1011.61
2023-06-09T03:05:14.402Z,1011.59
2023-06-09T03:06:59.417Z,1011.69
2023-06-09T03:08:44.412Z,1011.73
2023-06-09T03:10:29.405Z,1011.71
2023-06-09T03:12:14.439Z,1011.69
2023-06-09T03:13:59.427Z,1011.66
2023-06-09T03:15:44.414Z,1011.84
2023-06-09T03:17:29.421Z,1011.76
2023-06-09T03:19:14.412Z,1011.74
2023-06-09T03:20:59.416Z,1011.81
2023-06-09T03:22:44.424Z,1011.81
2023-06-09T03:24:29.437Z,1011.82
2023-06-09T03:26:14.741Z,1011.85
2023-06-09T03:27:59.482Z,1011.82
2023-06-09T03:29:44.462Z,1011.9
2023-06-09T03:31:29.485Z,1011.8
2023-06-09T03:33:14.429Z,1011.87
2023-06-09T03:34:59.438Z,1011.9
2023-06-09T03:36:44.447Z,1011.87
2023-06-09T03:38:29.720Z,1011.94
2023-06-09T03:40:14.736Z,1011.88
2023-06-09T03:41:59.748Z,1011.9
2023-06-09T03:43:44.479Z,1011.73
2023-06-09T03:45:29.749Z,1011.73
2023-06-09T03:47:14.448Z,1011.8
2023-06-09T03:48:59.456Z,1011.79
2023-06-09T03:50:44.485Z,1011.8
2023-06-09T03:52:29.481Z,1011.74
2023-06-09T03:54:14.456Z,1011.72
2023-06-09T03:55:59.486Z,1011.77
2023-06-09T03:57:44.471Z,1011.76
2023-06-09T03:59:29.493Z,1011.78
2023-06-09T04:01:14.805Z,1011.82
2023-06-09T04:02:59.542Z,1011.75
2023-06-09T04:04:44.507Z,1011.7
2023-06-09T04:06:29.798Z,1011.78
2023-06-09T04:08:14.461Z,1011.69
2023-06-09T04:09:59.492Z,1011.78
2023-06-09T04:11:44.497Z,1011.77
2023-06-09T04:13:29.526Z,1011.67
2023-06-09T04:15:14.508Z,1011.64
2023-06-09T04:17:00.241Z,1011.75
2023-06-09T04:18:44.514Z,1011.7
2023-06-09T04:20:29.830Z,1011.74
2023-06-09T04:22:14.795Z,1011.69
2023-06-09T04:23:59.522Z,1011.74
2023-06-09T04:25:44.532Z,1011.64
2023-06-09T04:27:29.486Z,1011.64
2023-06-09T04:29:14.810Z,1011.77
2023-06-09T04:30:59.557Z,1011.72
2023-06-09T04:32:44.515Z,1011.74
2023-06-09T04:34:29.535Z,1011.75
2023-06-09T04:36:14.538Z,1011.68
2023-06-09T04:38:00.820Z,1011.72
2023-06-09T04:39:44.514Z,1011.73
2023-06-09T04:41:29.531Z,1011.68
2023-06-09T04:43:14.536Z,1011.71
2023-06-09T04:44:59.577Z,1011.77
2023-06-09T04:46:44.576Z,1011.74
2023-06-09T04:48:29.522Z,1011.75
2023-06-09T04:50:14.529Z,1011.87
2023-06-09T04:51:59.560Z,1011.89
2023-06-09T04:53:44.557Z,1011.84
2023-06-09T04:55:29.532Z,1011.84
2023-06-09T04:57:14.861Z,1011.92
2023-06-09T04:58:59.540Z,1011.96
2023-06-09T05:00:44.942Z,1011.94
2023-06-09T05:02:30.697Z,1011.95
2023-06-09T05:04:14.539Z,1011.92
2023-06-09T05:05:59.557Z,1011.94
2023-06-09T05:07:44.584Z,1011.96
2023-06-09T05:09:29.569Z,1012.02
2023-06-09T05:11:14.563Z,1011.93
2023-06-09T05:12:59.595Z,1012.01
2023-06-09T05:14:44.586Z,1011.97
2023-06-09T05:16:29.592Z,1012.03
2023-06-09T05:18:14.590Z,1012.03
2023-06-09T05:19:59.579Z,1011.96
2023-06-09T05:21:44.572Z,1011.96
2023-06-09T05:23:29.669Z,1012.08
2023-06-09T05:25:16.527Z,1012.04
2023-06-09T05:26:59.562Z,1011.93
2023-06-09T05:28:44.587Z,1012.15
2023-06-09T05:30:29.594Z,1012.05
2023-06-09T05:32:14.633Z,1012.05
2023-06-09T05:33:59.680Z,1012.04
2023-06-09T05:35:44.626Z,1012.14
2023-06-09T05:37:29.609Z,1012.1
2023-06-09T05:39:14.611Z,1012.16
2023-06-09T05:40:59.920Z,1012.14
2023-06-09T05:42:44.911Z,1012.16
2023-06-09T05:44:29.622Z,1012.15
2023-06-09T05:46:14.666Z,1012.13
2023-06-09T05:47:59.667Z,1012.1
2023-06-09T05:49:44.660Z,1012.07
2023-06-09T05:51:29.669Z,1012.12
2023-06-09T05:53:14.613Z,1012.14
2023-06-09T05:54:59.650Z,1012.07
2023-06-09T05:56:45.079Z,1011.97
2023-06-09T05:58:29.651Z,1012.06
2023-06-09T06:00:14.695Z,1012.08
2023-06-09T06:01:59.966Z,1012.06
2023-06-09T06:03:44.714Z,1012.11
2023-06-09T06:05:29.683Z,1012.12
2023-06-09T06:07:14.663Z,1012.12
2023-06-09T06:08:59.655Z,1012.09
2023-06-09T06:10:44.650Z,1012.16
2023-06-09T06:12:29.687Z,1012.13
2023-06-09T06:14:14.671Z,1012.14
2023-06-09T06:15:59.714Z,1012.09
2023-06-09T06:17:44.781Z,1012.15
2023-06-09T06:19:29.965Z,1012.08
2023-06-09T06:21:14.708Z,1012.14
2023-06-09T06:22:59.688Z,1012.13
2023-06-09T06:24:44.674Z,1012.13
2023-06-09T06:26:29.662Z,1012.14
2023-06-09T06:28:14.694Z,1012.11
2023-06-09T06:29:59.669Z,1012.17
2023-06-09T06:31:44.766Z,1012.15
2023-06-09T06:33:29.714Z,1012.24
2023-06-09T06:35:14.722Z,1012.09
2023-06-09T06:36:59.703Z,1012.25
2023-06-09T06:38:44.671Z,1012.3
2023-06-09T06:40:29.681Z,1012.31
2023-06-09T06:42:14.691Z,1012.16
2023-06-09T06:43:59.682Z,1012.25
2023-06-09T06:45:44.713Z,1012.27
2023-06-09T06:47:29.740Z,1012.25
2023-06-09T06:49:14.700Z,1012.27
2023-06-09T06:50:59.692Z,1012.26
2023-06-09T06:52:45.024Z,1012.22
2023-06-09T06:54:29.708Z,1012.28
2023-06-09T06:56:14.741Z,1012.28
2023-06-09T06:57:59.740Z,1012.28
2023-06-09T06:59:44.705Z,1012.32
2023-06-09T07:01:29.772Z,1012.31
2023-06-09T07:03:15.066Z,1012.22
2023-06-09T07:04:59.724Z,1012.22
2023-06-09T07:06:44.725Z,1012.36
2023-06-09T07:08:29.766Z,1012.15
2023-06-09T07:10:14.762Z,1012.22
2023-06-09T07:11:59.748Z,1012.25
2023-06-09T07:13:44.727Z,1012.18
2023-06-09T07:15:30.082Z,1012.25
2023-06-09T07:17:14.811Z,1012.15
2023-06-09T07:19:00.371Z,1012.2
2023-06-09T07:20:44.749Z,1012.18
2023-06-09T07:22:29.772Z,1012.22
2023-06-09T07:24:14.862Z,1012.24
2023-06-09T07:25:59.781Z,1012.18
2023-06-09T07:27:44.780Z,1012.13
2023-06-09T07:29:29.771Z,1012.16
2023-06-09T07:31:14.786Z,1012.19
2023-06-09T07:33:00.153Z,1012.15
2023-06-09T07:34:44.848Z,1012.15
2023-06-09T07:36:29.772Z,1012.22
2023-06-09T07:38:15.425Z,1012.28
2023-06-09T07:40:09.049Z,1012.18
2023-06-09T07:41:44.798Z,1012.15
2023-06-09T07:43:29.832Z,1012.16
2023-06-09T07:45:14.811Z,1012.21
2023-06-09T07:46:59.835Z,1012.15
2023-06-09T07:48:44.852Z,1012.12
2023-06-09T07:50:29.835Z,1012.08
2023-06-09T07:52:23.661Z,1012.15
2023-06-09T07:53:59.824Z,1012.13
2023-06-09T07:55:44.828Z,1012.13
2023-06-09T07:57:29.806Z,1012.15
2023-06-09T07:59:14.829Z,1012.14
2023-06-09T08:00:59.819Z,1012.08
2023-06-09T08:02:45.047Z,1012.19
2023-06-09T08:04:29.873Z,1012.03
2023-06-09T08:06:14.825Z,1012.12
2023-06-09T08:07:59.854Z,1012.04
2023-06-09T08:09:44.852Z,1011.98
2023-06-09T08:11:29.838Z,1011.97
2023-06-09T08:13:14.846Z,1012.01
2023-06-09T08:14:59.842Z,1011.99
2023-06-09T08:16:44.890Z,1011.98
2023-06-09T08:18:29.835Z,1012
2023-06-09T08:20:14.828Z,1011.95
2023-06-09T08:21:59.851Z,1012
2023-06-09T08:23:44.903Z,1011.96
2023-06-09T08:25:29.881Z,1012.01
2023-06-09T08:27:14.877Z,1011.95
2023-06-09T08:28:59.882Z,1011.96
2023-06-09T08:30:44.867Z,1011.97
2023-06-09T08:32:32.519Z,1011.91
2023-06-09T08:34:14.858Z,1011.95
2023-06-09T08:35:59.879Z,1011.91
2023-06-09T08:37:44.872Z,1011.88
2023-06-09T08:39:29.880Z,1011.88
2023-06-09T08:41:14.886Z,1011.83
2023-06-09T08:42:59.928Z,1011.8
2023-06-09T08:44:44.924Z,1011.84
2023-06-09T08:46:29.941Z,1011.91
2023-06-09T08:48:14.883Z,1011.92
2023-06-09T08:49:59.927Z,1011.9
2023-06-09T08:51:45.449Z,1011.93
2023-06-09T08:53:29.904Z,1011.87
2023-06-09T08:55:14.891Z,1011.81
2023-06-09T08:56:59.898Z,1011.85
2023-06-09T08:58:44.944Z,1011.85
2023-06-09T09:00:29.913Z,1011.88
2023-06-09T09:02:14.923Z,1011.79
2023-06-09T09:04:01.442Z,1011.81
2023-06-09T09:05:44.923Z,1011.88
2023-06-09T09:07:29.910Z,1011.85
2023-06-09T09:09:14.925Z,1011.77
2023-06-09T09:10:59.918Z,1011.83
2023-06-09T09:12:44.916Z,1011.75
2023-06-09T09:14:29.964Z,1011.89
2023-06-09T09:16:14.952Z,1011.78
2023-06-09T09:17:59.952Z,1011.77
2023-06-09T09:19:44.951Z,1011.85
2023-06-09T09:21:29.928Z,1011.86
2023-06-09T09:23:14.936Z,1011.82
2023-06-09T09:24:59.940Z,1011.81
2023-06-09T09:26:44.932Z,1011.92
2023-06-09T09:28:29.950Z,1011.82
2023-06-09T09:30:14.995Z,1011.82
2023-06-09T09:32:00.019Z,1011.77
2023-06-09T09:33:44.919Z,1011.79
2023-06-09T09:35:29.959Z,1011.82
2023-06-09T09:37:14.947Z,1011.74
2023-06-09T09:38:59.959Z,1011.75
2023-06-09T09:40:44.944Z,1011.76
2023-06-09T09:42:29.965Z,1011.71
2023-06-09T09:44:14.963Z,1011.67
2023-06-09T09:46:00.084Z,1011.67
2023-06-09T09:47:44.978Z,1011.67
2023-06-09T09:49:29.958Z,1011.64
2023-06-09T09:51:15.155Z,1011.66
2023-06-09T09:52:59.955Z,1011.62
2023-06-09T09:54:44.951Z,1011.54
2023-06-09T09:56:29.998Z,1011.48
2023-06-09T09:58:15.313Z,1011.58
2023-06-09T09:59:59.952Z,1011.57
2023-06-09T10:01:45.018Z,1011.59
2023-06-09T10:03:30.035Z,1011.44
2023-06-09T10:05:14.960Z,1011.53
2023-06-09T10:07:00.027Z,1011.55
2023-06-09T10:08:45.032Z,1011.55
2023-06-09T10:10:29.987Z,1011.52
2023-06-09T10:12:15.007Z,1011.51
2023-06-09T10:14:00.046Z,1011.48
2023-06-09T10:15:44.984Z,1011.42
2023-06-09T10:17:30.382Z,1011.35
2023-06-09T10:19:15.013Z,1011.46
2023-06-09T10:20:59.991Z,1011.39
2023-06-09T10:22:45.006Z,1011.47
2023-06-09T10:24:30.053Z,1011.51
2023-06-09T10:26:15.038Z,1011.58
2023-06-09T10:28:00.029Z,1011.47
2023-06-09T10:29:45.076Z,1011.47
2023-06-09T10:31:30.065Z,1011.48
2023-06-09T10:33:15.130Z,1011.46
2023-06-09T10:35:00.040Z,1011.51
2023-06-09T10:36:45.076Z,1011.45
2023-06-09T10:38:30.034Z,1011.42
2023-06-09T10:40:15.336Z,1011.45
2023-06-09T10:42:00.498Z,1011.39
2023-06-09T10:43:45.122Z,1011.35
2023-06-09T10:45:30.389Z,1011.44
2023-06-09T10:47:15.054Z,1011.38
2023-06-09T10:49:00.108Z,1011.39
2023-06-09T10:50:45.100Z,1011.47
2023-06-09T10:52:30.072Z,1011.4
2023-06-09T10:54:15.101Z,1011.41
2023-06-09T10:56:00.103Z,1011.34
2023-06-09T10:57:45.102Z,1011.32
2023-06-09T10:59:30.080Z,1011.33
2023-06-09T11:01:15.121Z,1011.36
2023-06-09T11:03:00.168Z,1011.33
2023-06-09T11:04:45.257Z,1011.45
2023-06-09T11:06:30.095Z,1011.31
2023-06-09T11:08:15.127Z,1011.28
2023-06-09T11:10:00.103Z,1011.31
2023-06-09T11:11:45.738Z,1011.3
2023-06-09T11:13:30.131Z,1011.15
2023-06-09T11:15:15.142Z,1011.22
2023-06-09T11:17:00.107Z,1011.32
2023-06-09T11:18:45.160Z,1011.31
2023-06-09T11:20:30.145Z,1011.27
2023-06-09T11:22:15.113Z,1011.33
2023-06-09T11:24:00.208Z,1011.26
2023-06-09T11:25:45.132Z,1011.19
2023-06-09T11:27:30.127Z,1011.2
2023-06-09T11:29:15.153Z,1011.2
2023-06-09T11:31:00.447Z,1011.07
2023-06-09T11:32:45.199Z,1011.17
2023-06-09T11:34:30.186Z,1011.14
2023-06-09T11:36:15.172Z,1011.08
2023-06-09T11:38:00.166Z,1011.11
2023-06-09T11:39:45.148Z,1011.04
2023-06-09T11:41:30.191Z,1010.91
2023-06-09T11:43:15.186Z,1010.99
2023-06-09T11:45:00.234Z,1010.93
2023-06-09T11:46:45.160Z,1011.05
2023-06-09T11:48:30.170Z,1011.1
2023-06-09T11:50:15.157Z,1011.04
2023-06-09T11:52:00.206Z,1011.13
2023-06-09T11:53:45.190Z,1011.02
2023-06-09T11:55:30.175Z,1011.05
2023-06-09T11:57:15.190Z,1011.1
2023-06-09T11:59:00.188Z,1010.94
2023-06-09T12:00:45.185Z,1011.03
2023-06-09T12:02:30.278Z,1011
2023-06-09T12:04:15.178Z,1011.06
2023-06-09T12:06:00.243Z,1011.05
2023-06-09T12:07:45.213Z,1010.96
2023-06-09T12:09:30.177Z,1011.07
2023-06-09T12:11:15.225Z,1011.02
2023-06-09T12:13:00.176Z,1010.92
2023-06-09T12:14:45.480Z,1010.92
2023-06-09T12:16:30.220Z,1010.92
2023-06-09T12:18:15.221Z,1010.94
2023-06-09T12:20:00.220Z,1010.95
2023-06-09T12:21:45.254Z,1010.96
2023-06-09T12:23:30.275Z,1010.9
2023-06-09T12:25:15.216Z,1010.85
2023-06-09T12:27:00.229Z,1010.86
2023-06-09T12:28:45.234Z,1010.8
2023-06-09T12:30:30.226Z,1010.83
2023-06-09T12:32:15.259Z,1010.79
2023-06-09T12:34:00.542Z,1010.72
2023-06-09T12:35:45.223Z,1010.83
2023-06-09T12:37:30.228Z,1010.86
2023-06-09T12:39:15.276Z,1010.72
2023-06-09T12:41:00.261Z,1010.78
2023-06-09T12:42:45.235Z,1010.85
2023-06-09T12:44:30.560Z,1010.72
2023-06-09T12:46:15.237Z,1010.79
2023-06-09T12:48:00.348Z,1010.77
2023-06-09T12:49:45.267Z,1010.78
2023-06-09T12:51:30.268Z,1010.76
2023-06-09T12:53:15.260Z,1010.68
2023-06-09T12:55:10.471Z,1010.72
2023-06-09T12:56:45.266Z,1010.69
2023-06-09T12:58:30.294Z,1010.71
2023-06-09T13:00:21.670Z,1010.67
2023-06-09T13:02:00.321Z,1010.68
2023-06-09T13:03:45.710Z,1010.69
2023-06-09T13:05:30.261Z,1010.67
2023-06-09T13:07:15.282Z,1010.68
2023-06-09T13:09:00.262Z,1010.62
2023-06-09T13:10:45.337Z,1010.6
2023-06-09T13:12:30.297Z,1010.57
2023-06-09T13:14:15.302Z,1010.45
2023-06-09T13:16:00.294Z,1010.61
2023-06-09T13:17:45.366Z,1010.6
2023-06-09T13:19:30.292Z,1010.5
2023-06-09T13:21:17.893Z,1010.5
2023-06-09T13:23:00.305Z,1010.54
2023-06-09T13:24:45.323Z,1010.49
2023-06-09T13:26:30.322Z,1010.45
2023-06-09T13:28:15.306Z,1010.53
2023-06-09T13:30:00.411Z,1010.51
2023-06-09T13:31:45.305Z,1010.43
2023-06-09T13:33:30.304Z,1010.53
2023-06-09T13:35:15.386Z,1010.48
2023-06-09T13:37:00.329Z,1010.42
2023-06-09T13:38:45.324Z,1010.51
2023-06-09T13:40:30.329Z,1010.56
2023-06-09T13:42:15.338Z,1010.44
2023-06-09T13:44:00.615Z,1010.4
2023-06-09T13:45:45.382Z,1010.45
2023-06-09T13:47:30.359Z,1010.36
2023-06-09T13:49:15.484Z,1010.34
2023-06-09T13:51:00.390Z,1010.37
2023-06-09T13:52:45.324Z,1010.38
2023-06-09T13:54:30.335Z,1010.45
2023-06-09T13:56:15.657Z,1010.38
2023-06-09T13:58:01.602Z,1010.4
2023-06-09T13:59:45.339Z,1010.4
2023-06-09T14:01:30.370Z,1010.36
2023-06-09T14:03:15.633Z,1010.47
2023-06-09T14:05:00.461Z,1010.43
2023-06-09T14:06:45.392Z,1010.43
2023-06-09T14:08:30.349Z,1010.42
2023-06-09T14:10:15.349Z,1010.39
2023-06-09T14:12:00.834Z,1010.41
2023-06-09T14:13:45.401Z,1010.43
2023-06-09T14:15:31.084Z,1010.43
2023-06-09T14:17:15.379Z,1010.37
2023-06-09T14:19:00.443Z,1010.31
2023-06-09T14:20:45.367Z,1010.39
2023-06-09T14:22:30.373Z,1010.33
2023-06-09T14:24:15.471Z,1010.42
2023-06-09T14:26:00.386Z,1010.38
2023-06-09T14:27:45.393Z,1010.36
2023-06-09T14:29:30.432Z,1010.26
2023-06-09T14:31:15.410Z,1010.27
2023-06-09T14:33:00.445Z,1010.28
2023-06-09T14:34:45.431Z,1010.44
2023-06-09T14:36:30.409Z,1010.34
2023-06-09T14:38:15.408Z,1010.27
2023-06-09T14:40:00.535Z,1010.31
2023-06-09T14:41:45.420Z,1010.27
2023-06-09T14:43:30.427Z,1010.23
2023-06-09T14:45:15.444Z,1010.25
2023-06-09T14:47:00.424Z,1010.27
2023-06-09T14:48:45.438Z,1010.22
2023-06-09T14:50:30.440Z,1010.23
2023-06-09T14:52:15.431Z,1010.17
2023-06-09T14:54:00.476Z,1010.2
2023-06-09T14:55:45.461Z,1010.15
2023-06-09T14:57:30.453Z,1010.26
2023-06-09T14:59:15.468Z,1010.16
2023-06-09T15:01:00.480Z,1010.12
2023-06-09T15:02:45.468Z,1010.08
2023-06-09T15:04:30.733Z,1010.02
2023-06-09T15:06:15.448Z,1010.07
2023-06-09T15:08:00.453Z,1010.01
2023-06-09T15:09:45.458Z,1009.99
2023-06-09T15:11:32.724Z,1009.99
2023-06-09T15:13:15.492Z,1010.04
2023-06-09T15:15:01.468Z,1010.06
2023-06-09T15:16:45.521Z,1009.99
2023-06-09T15:18:30.487Z,1009.92
2023-06-09T15:20:15.526Z,1010.02
2023-06-09T15:22:12.339Z,1010.01
2023-06-09T15:23:45.514Z,1010.04
2023-06-09T15:25:30.848Z,1010.07
2023-06-09T15:27:15.467Z,1009.96
2023-06-09T15:29:00.480Z,1010.01
2023-06-09T15:30:45.476Z,1010.11
2023-06-09T15:32:30.541Z,1010.12
2023-06-09T15:34:15.491Z,1010.1
2023-06-09T15:36:00.500Z,1010.02
2023-06-09T15:37:45.811Z,1010.07
2023-06-09T15:39:30.474Z,1009.92
2023-06-09T15:41:15.477Z,1010.01
2023-06-09T15:43:00.505Z,1010
2023-06-09T15:44:45.520Z,1010.01
2023-06-09T15:46:30.815Z,1009.96
2023-06-09T15:48:15.518Z,1009.96
2023-06-09T15:50:00.507Z,1009.91
2023-06-09T15:51:45.502Z,1009.91
2023-06-09T15:53:30.515Z,1009.98
2023-06-09T15:55:15.520Z,1010
2023-06-09T15:57:00.502Z,1009.91
2023-06-09T15:58:45.574Z,1009.89
2023-06-09T16:00:30.520Z,1009.85
2023-06-09T16:02:15.830Z,1009.91
2023-06-09T16:04:00.595Z,1009.91
2023-06-09T16:05:45.531Z,1009.86
2023-06-09T16:07:30.549Z,1009.86
2023-06-09T16:09:15.542Z,1009.81
2023-06-09T16:11:01.579Z,1009.86
2023-06-09T16:12:45.528Z,1009.84
2023-06-09T16:14:30.547Z,1009.84
2023-06-09T16:16:15.528Z,1009.8
2023-06-09T16:18:00.576Z,1009.65
2023-06-09T16:19:45.570Z,1009.71
2023-06-09T16:21:30.557Z,1009.63
2023-06-09T16:23:15.552Z,1009.66
2023-06-09T16:25:00.562Z,1009.62
2023-06-09T16:26:45.594Z,1009.56
2023-06-09T16:28:30.574Z,1009.58
2023-06-09T16:30:15.562Z,1009.7
2023-06-09T16:32:00.690Z,1009.57
2023-06-09T16:33:45.569Z,1009.59
2023-06-09T16:35:30.604Z,1009.68
2023-06-09T16:37:15.558Z,1009.65
2023-06-09T16:39:00.585Z,1009.65
2023-06-09T16:40:45.624Z,1009.7
2023-06-09T16:42:30.571Z,1009.63
2023-06-09T16:44:15.581Z,1009.65
2023-06-09T16:46:00.596Z,1009.65
2023-06-09T16:47:45.620Z,1009.68
2023-06-09T16:49:30.592Z,1009.62
2023-06-09T16:51:15.642Z,1009.63
2023-06-09T16:53:00.601Z,1009.66
2023-06-09T16:54:45.605Z,1009.68
2023-06-09T16:56:30.602Z,1009.61
2023-06-09T16:58:15.610Z,1009.67
2023-06-09T17:00:00.610Z,1009.58
2023-06-09T17:01:45.647Z,1009.68
2023-06-09T17:03:30.690Z,1009.7
2023-06-09T17:05:15.617Z,1009.72
2023-06-09T17:07:00.703Z,1009.75
2023-06-09T17:08:45.616Z,1009.71
2023-06-09T17:10:30.931Z,1009.74
2023-06-09T17:12:15.627Z,1009.78
2023-06-09T17:14:00.670Z,1009.81
2023-06-09T17:15:45.663Z,1009.65
2023-06-09T17:17:30.981Z,1009.77
2023-06-09T17:19:15.667Z,1009.82
2023-06-09T17:21:02.675Z,1009.8
2023-06-09T17:22:45.682Z,1009.84
2023-06-09T17:24:30.651Z,1009.81
2023-06-09T17:26:15.683Z,1009.78
2023-06-09T17:28:01.331Z,1009.84
2023-06-09T17:29:45.654Z,1009.78
2023-06-09T17:31:30.702Z,1009.87
2023-06-09T17:33:15.676Z,1009.9
2023-06-09T17:35:00.684Z,1009.92
2023-06-09T17:36:45.680Z,1009.8
2023-06-09T17:38:32.085Z,1009.82
2023-06-09T17:40:15.724Z,1009.83
2023-06-09T17:42:00.718Z,1009.87
2023-06-09T17:43:45.689Z,1009.85
2023-06-09T17:45:30.738Z,1009.99
2023-06-09T17:47:15.713Z,1009.9
2023-06-09T17:49:00.699Z,1009.91
2023-06-09T17:50:45.715Z,1009.92
2023-06-09T17:52:31.035Z,1009.87
2023-06-09T17:54:15.725Z,1009.92
2023-06-09T17:56:00.719Z,1009.94
2023-06-09T17:57:45.727Z,1009.95
2023-06-09T17:59:30.706Z,1009.99
2023-06-09T18:01:15.757Z,1010.03
2023-06-09T18:03:00.777Z,1010.01
2023-06-09T18:04:46.008Z,1009.97
2023-06-09T18:06:30.709Z,1010
2023-06-09T18:08:15.741Z,1010.03
2023-06-09T18:10:00.765Z,1010.07
2023-06-09T18:11:45.726Z,1010.12
2023-06-09T18:13:30.719Z,1010.09
2023-06-09T18:15:15.759Z,1010.2
2023-06-09T18:17:00.735Z,1010.2
2023-06-09T18:18:46.042Z,1010.13
2023-06-09T18:20:30.740Z,1010.04
2023-06-09T18:22:15.729Z,1010.16
2023-06-09T18:24:00.821Z,1010.12
2023-06-09T18:25:45.778Z,1010.17
2023-06-09T18:27:30.747Z,1010.19
2023-06-09T18:29:15.785Z,1010.24
2023-06-09T18:31:00.792Z,1010.27
2023-06-09T18:32:45.800Z,1010.24
2023-06-09T18:34:30.754Z,1010.29
2023-06-09T18:36:15.768Z,1010.36
2023-06-09T18:38:00.762Z,1010.32
2023-06-09T18:39:45.773Z,1010.31
2023-06-09T18:41:30.834Z,1010.37
2023-06-09T18:43:15.782Z,1010.38
2023-06-09T18:45:00.786Z,1010.37
2023-06-09T18:46:45.841Z,1010.46
2023-06-09T18:48:30.777Z,1010.46
2023-06-09T18:50:15.809Z,1010.46
2023-06-09T18:52:00.812Z,1010.52
2023-06-09T18:53:45.804Z,1010.47
2023-06-09T18:55:30.830Z,1010.52
2023-06-09T18:57:15.840Z,1010.55
2023-06-09T18:59:00.789Z,1010.56
2023-06-09T19:00:46.502Z,1010.56
2023-06-09T19:02:30.852Z,1010.59
2023-06-09T19:04:15.818Z,1010.55
2023-06-09T19:06:00.858Z,1010.62
2023-06-09T19:07:45.855Z,1010.66
2023-06-09T19:09:30.847Z,1010.66
2023-06-09T19:11:15.841Z,1010.68
2023-06-09T19:13:00.904Z,1010.71
2023-06-09T19:14:45.832Z,1010.73
2023-06-09T19:16:30.926Z,1010.74
2023-06-09T19:18:15.895Z,1010.68
2023-06-09T19:20:00.859Z,1010.77
2023-06-09T19:21:45.833Z,1010.74
2023-06-09T19:23:31.204Z,1010.75
2023-06-09T19:25:15.869Z,1010.84
2023-06-09T19:27:00.930Z,1010.75
2023-06-09T19:28:47.084Z,1010.79
2023-06-09T19:30:30.948Z,1010.83
2023-06-09T19:32:15.910Z,1010.79
2023-06-09T19:34:00.889Z,1010.85
2023-06-09T19:35:45.945Z,1010.85
2023-06-09T19:37:30.882Z,1010.87
2023-06-09T19:39:15.881Z,1010.99
2023-06-09T19:41:00.869Z,1010.9
2023-06-09T19:42:45.877Z,1010.96
2023-06-09T19:44:30.917Z,1010.96
2023-06-09T19:46:15.999Z,1010.87
2023-06-09T19:48:01.232Z,1010.96
2023-06-09T19:49:45.893Z,1011.07
2023-06-09T19:51:30.887Z,1011.12
2023-06-09T19:53:15.891Z,1011.14
2023-06-09T19:55:00.887Z,1011.08
2023-06-09T19:56:45.928Z,1011.17
2023-06-09T19:58:30.909Z,1011.17
2023-06-09T20:00:16.020Z,1011.13
2023-06-09T20:02:00.943Z,1011.3
2023-06-09T20:03:45.939Z,1011.26
2023-06-09T20:05:30.942Z,1011.25
2023-06-09T20:07:15.954Z,1011.32
2023-06-09T20:09:00.934Z,1011.4
2023-06-09T20:10:45.926Z,1011.43
2023-06-09T20:12:30.935Z,1011.38
2023-06-09T20:14:15.928Z,1011.45
2023-06-09T20:16:00.954Z,1011.44
2023-06-09T20:17:45.948Z,1011.5
2023-06-09T20:19:30.933Z,1011.48
2023-06-09T20:21:15.937Z,1011.54
2023-06-09T20:23:02.741Z,1011.51
2023-06-09T20:24:45.965Z,1011.38
2023-06-09T20:26:30.964Z,1011.48
2023-06-09T20:28:15.955Z,1011.44
2023-06-09T20:30:00.966Z,1011.44
2023-06-09T20:31:45.985Z,1011.53
2023-06-09T20:33:30.947Z,1011.58
2023-06-09T20:35:16.296Z,1011.48
2023-06-09T20:37:00.942Z,1011.55
2023-06-09T20:38:46.003Z,1011.63
2023-06-09T20:40:30.969Z,1011.55
2023-06-09T20:42:15.959Z,1011.5
2023-06-09T20:44:01.002Z,1011.46
2023-06-09T20:45:46.014Z,1011.43
2023-06-09T20:47:31.040Z,1011.58
2023-06-09T20:49:16.006Z,1011.47
2023-06-09T20:51:01.008Z,1011.53
2023-06-09T20:52:47.756Z,1011.48
2023-06-09T20:54:30.987Z,1011.61
2023-06-09T20:56:16.007Z,1011.62
2023-06-09T20:58:00.993Z,1011.59
2023-06-09T20:59:46.002Z,1011.64
2023-06-09T21:01:31.040Z,1011.59
2023-06-09T21:03:16.014Z,1011.62
2023-06-09T21:05:00.999Z,1011.67
2023-06-09T21:06:46.023Z,1011.65
2023-06-09T21:08:31.005Z,1011.59
2023-06-09T21:10:16.821Z,1011.59
2023-06-09T21:12:01.007Z,1011.6
2023-06-09T21:13:46.019Z,1011.69
2023-06-09T21:15:31.039Z,1011.77